Time;durP1;ratioP1;P1;durP2;ratioP2;P2;SDS_P1;SDS_P2;PMS_P1;PMS_P2;Temp;Humidity;BMP_temperature;BMP_pressure;BME280_temperature;BME280_humidity;BME280_pressure;Samples;Min_cycle;Max_cycle;Signal;HPM_P1;HPM_P2
2023/08/07 00:05:44;;;;;;;5.6;1.7;;;;;;;14.98;87.98;;;;;
2023/08/07 00:16:45;;;;;;;8.4;5.7;;;;;;;15.02;87.94;;;;;
2023/08/07 00:27:45;;;;;;;8.4;5.7;;;;;;;15.15;87.71;;;;;
2023/08/07 00:38:44;;;;;;;8.4;5.7;;;;;;;15.19;87.46;;;;;
2023/08/07 00:49:44;;;;;;;10.7;5.5;;;;;;;15.27;87.31;;;;;
2023/08/07 00:59:44;;;;;;;10.7;5.5;;;;;;;15.34;87.02;;;;;
2023/08/07 01:09:45;;;;;;;10.7;5.5;;;;;;;15.44;86.59;;;;;
2023/08/07 01:20:44;;;;;;;4.2;2;;;;;;;15.34;86.26;;;;;
2023/08/07 01:30:44;;;;;;;4.2;2;;;;;;;15.37;86.69;;;;;
2023/08/07 01:40:45;;;;;;;4.2;2;;;;;;;15.44;86.05;;;;;
2023/08/07 01:51:45;;;;;;;5;1.6;;;;;;;15.38;86.09;;;;;
2023/08/07 02:02:45;;;;;;;5;1.6;;;;;;;15.25;86.19;;;;;
2023/08/07 02:12:45;;;;;;;6.5;1.4;;;;;;;14.99;87.03;;;;;
2023/08/07 02:23:44;;;;;;;6.5;1.4;;;;;;;14.71;87.84;;;;;
2023/08/07 02:33:45;;;;;;;6.5;1.4;;;;;;;14.51;87.99;;;;;
2023/08/07 02:44:45;;;;;;;3.6;1.7;;;;;;;14.57;87.53;;;;;
2023/08/07 02:54:44;;;;;;;3.6;1.7;;;;;;;14.57;87.5;;;;;
2023/08/07 03:05:45;;;;;;;3.6;1.7;;;;;;;14.42;88.41;;;;;
2023/08/07 03:16:45;;;;;;;3.7;1.6;;;;;;;14.52;88.67;;;;;
2023/08/07 03:26:47;;;;;;;3.7;1.6;;;;;;;14.65;88.79;;;;;
2023/08/07 03:37:45;;;;;;;3.7;1.6;;;;;;;14.83;88.86;;;;;
2023/08/07 03:48:45;;;;;;;4.5;2.1;;;;;;;14.98;88.64;;;;;
2023/08/07 03:58:44;;;;;;;4.5;2.1;;;;;;;15.13;88.41;;;;;
2023/08/07 04:08:45;;;;;;;4.5;2.1;;;;;;;15.31;88.03;;;;;
2023/08/07 04:19:45;;;;;;;5.8;2.5;;;;;;;15.51;87.37;;;;;
2023/08/07 04:30:45;;;;;;;5.8;2.5;;;;;;;15.48;86.94;;;;;
2023/08/07 04:41:45;;;;;;;5.3;3.3;;;;;;;15.87;85.94;;;;;
2023/08/07 04:51:45;;;;;;;5.3;3.3;;;;;;;16.05;85.14;;;;;
2023/08/07 05:02:44;;;;;;;5.3;3.3;;;;;;;16.23;84.41;;;;;
2023/08/07 05:12:45;;;;;;;3.8;1.4;;;;;;;16.19;83.79;;;;;
2023/08/07 05:23:45;;;;;;;3.8;1.4;;;;;;;16.38;82.86;;;;;
2023/08/07 05:34:45;;;;;;;3.8;1.4;;;;;;;16.43;81.69;;;;;
2023/08/07 05:44:45;;;;;;;1.8;0.8;;;;;;;16.54;81.87;;;;;
2023/08/07 05:54:45;;;;;;;1.8;0.8;;;;;;;16.89;79.83;;;;;
2023/08/07 06:05:45;;;;;;;1.8;0.8;;;;;;;16.85;78.57;;;;;
2023/08/07 06:15:45;;;;;;;2.6;0.8;;;;;;;17.03;79.34;;;;;
2023/08/07 06:26:45;;;;;;;2.6;0.8;;;;;;;17.41;77.9;;;;;
2023/08/07 06:37:45;;;;;;;2.6;0.8;;;;;;;17.77;76.32;;;;;
2023/08/07 06:47:45;;;;;;;6.1;1.3;;;;;;;17.76;74.65;;;;;
2023/08/07 06:58:45;;;;;;;6.1;1.3;;;;;;;17.82;74.89;;;;;
2023/08/07 07:09:45;;;;;;;6.1;1.3;;;;;;;18.61;72.76;;;;;
2023/08/07 07:19:45;;;;;;;2.7;1.2;;;;;;;18.5;72.49;;;;;
2023/08/07 07:30:45;;;;;;;2.7;1.2;;;;;;;18.54;71.57;;;;;
2023/08/07 07:41:45;;;;;;;2.3;0.7;;;;;;;18.9;69.84;;;;;
2023/08/07 07:51:46;;;;;;;2.3;0.7;;;;;;;18.36;72.44;;;;;
2023/08/07 08:01:45;;;;;;;2.3;0.7;;;;;;;18.33;70.23;;;;;
2023/08/07 08:11:45;;;;;;;2.4;0.9;;;;;;;18.16;72.89;;;;;
2023/08/07 08:22:45;;;;;;;2.4;0.9;;;;;;;18.95;70.18;;;;;
2023/08/07 08:33:45;;;;;;;2.4;0.9;;;;;;;19.1;68.68;;;;;
2023/08/07 08:44:45;;;;;;;1.8;0.8;;;;;;;19.1;68.29;;;;;
2023/08/07 08:54:45;;;;;;;1.8;0.8;;;;;;;19.75;68.69;;;;;
2023/08/07 09:05:45;;;;;;;1.8;0.8;;;;;;;19.95;65.31;;;;;
2023/08/07 09:16:45;;;;;;;2;0.9;;;;;;;19.2;66.03;;;;;
2023/08/07 09:26:45;;;;;;;2;0.9;;;;;;;19.33;66.41;;;;;
2023/08/07 09:36:45;;;;;;;2;0.9;;;;;;;19.31;66.1;;;;;
2023/08/07 09:46:45;;;;;;;3.8;1.4;;;;;;;19.45;67.9;;;;;
2023/08/07 09:57:45;;;;;;;3.8;1.4;;;;;;;19.26;68.25;;;;;
2023/08/07 10:07:45;;;;;;;3.8;1.4;;;;;;;19.28;68.68;;;;;
2023/08/07 10:17:45;;;;;;;2.4;0.8;;;;;;;19.09;68.02;;;;;
2023/08/07 10:27:45;;;;;;;2.4;0.8;;;;;;;19.01;67.74;;;;;
2023/08/07 10:38:45;;;;;;;2.4;0.8;;;;;;;19.03;71.74;;;;;
2023/08/07 10:49:45;;;;;;;2.1;0.8;;;;;;;20.29;66.37;;;;;
2023/08/07 10:59:45;;;;;;;2.1;0.8;;;;;;;19.35;67.97;;;;;
2023/08/07 11:09:45;;;;;;;2.1;0.8;;;;;;;19.84;69.8;;;;;
2023/08/07 11:20:45;;;;;;;2.4;0.7;;;;;;;19.46;69.36;;;;;
2023/08/07 11:31:45;;;;;;;2.4;0.7;;;;;;;19.64;69.66;;;;;
2023/08/07 11:41:45;;;;;;;4.3;0.9;;;;;;;18.28;75.56;;;;;
2023/08/07 11:51:45;;;;;;;4.3;0.9;;;;;;;17.7;81.05;;;;;
2023/08/07 12:02:45;;;;;;;4.3;0.9;;;;;;;17.93;80.02;;;;;
2023/08/07 12:13:45;;;;;;;2.9;1.1;;;;;;;18.14;79.08;;;;;
2023/08/07 12:23:47;;;;;;;2.9;1.1;;;;;;;17.96;79.15;;;;;
2023/08/07 12:34:45;;;;;;;2.9;1.1;;;;;;;17.51;80.47;;;;;
2023/08/07 12:44:45;;;;;;;3.3;1.7;;;;;;;16.47;81.24;;;;;
2023/08/07 12:55:45;;;;;;;3.3;1.7;;;;;;;16.19;83.28;;;;;
2023/08/07 13:06:45;;;;;;;3.3;1.7;;;;;;;16.6;82.06;;;;;
2023/08/07 13:17:45;;;;;;;3.6;1.8;;;;;;;18.02;81.19;;;;;
2023/08/07 13:27:45;;;;;;;3.6;1.8;;;;;;;18.2;77.22;;;;;
2023/08/07 13:38:45;;;;;;;3.6;1.8;;;;;;;18.58;76.13;;;;;
2023/08/07 13:49:45;;;;;;;5.8;2.4;;;;;;;17.94;76.04;;;;;
2023/08/07 14:00:45;;;;;;;5.8;2.4;;;;;;;17.45;76;;;;;
2023/08/07 14:10:45;;;;;;;5.8;2.4;;;;;;;17.62;75.55;;;;;
2023/08/07 14:20:45;;;;;;;4.9;2.5;;;;;;;17.9;74.51;;;;;
2023/08/07 14:31:45;;;;;;;4.9;2.5;;;;;;;18.11;73.2;;;;;
2023/08/07 14:42:45;;;;;;;3.5;1.8;;;;;;;18.6;75.27;;;;;
2023/08/07 14:53:45;;;;;;;3.5;1.8;;;;;;;19.32;72.48;;;;;
2023/08/07 15:04:45;;;;;;;3.5;1.8;;;;;;;19.01;70.01;;;;;
2023/08/07 15:14:45;;;;;;;3.7;1.5;;;;;;;18.29;70.22;;;;;
2023/08/07 15:25:45;;;;;;;3.7;1.5;;;;;;;17.99;70.99;;;;;
2023/08/07 15:36:45;;;;;;;3.7;1.5;;;;;;;18;70.76;;;;;
2023/08/07 15:47:46;;;;;;;4.7;1.9;;;;;;;18.19;71.45;;;;;
2023/08/07 15:57:45;;;;;;;4.7;1.9;;;;;;;18.29;69.88;;;;;
2023/08/07 16:08:45;;;;;;;4.7;1.9;;;;;;;17.83;71.36;;;;;
2023/08/07 16:19:45;;;;;;;5.8;2.3;;;;;;;18.25;71.51;;;;;
2023/08/07 16:29:45;;;;;;;5.8;2.3;;;;;;;18.08;71.53;;;;;
2023/08/07 16:39:45;;;;;;;5.8;2.3;;;;;;;17.62;70.8;;;;;
2023/08/07 16:50:45;;;;;;;4.5;2.2;;;;;;;17.21;73.42;;;;;
2023/08/07 17:01:45;;;;;;;4.5;2.2;;;;;;;17.46;74.46;;;;;
2023/08/07 17:12:45;;;;;;;5.1;2.3;;;;;;;17.74;72.85;;;;;
2023/08/07 17:22:45;;;;;;;5.1;2.3;;;;;;;17.37;74.62;;;;;
2023/08/07 17:32:45;;;;;;;5.1;2.3;;;;;;;17.47;74.17;;;;;
2023/08/07 17:43:45;;;;;;;5.2;2.2;;;;;;;16.92;75.71;;;;;
2023/08/07 17:53:45;;;;;;;5.2;2.2;;;;;;;16.53;76.77;;;;;
2023/08/07 18:03:45;;;;;;;5.2;2.2;;;;;;;16.15;77.4;;;;;
2023/08/07 18:13:45;;;;;;;5.5;2.6;;;;;;;15.68;79.03;;;;;
2023/08/07 18:24:45;;;;;;;5.5;2.6;;;;;;;15.41;80.35;;;;;
2023/08/07 18:34:45;;;;;;;5.5;2.6;;;;;;;15.18;81.17;;;;;
2023/08/07 18:45:45;;;;;;;5.1;2.6;;;;;;;14.93;81.84;;;;;
2023/08/07 18:55:45;;;;;;;5.1;2.6;;;;;;;14.75;82.45;;;;;
2023/08/07 19:05:45;;;;;;;5.1;2.6;;;;;;;14.62;82.8;;;;;
2023/08/07 19:15:46;;;;;;;4.9;2.4;;;;;;;14.55;82.9;;;;;
2023/08/07 19:26:45;;;;;;;4.9;2.4;;;;;;;14.43;83.57;;;;;
2023/08/07 19:36:45;;;;;;;4.9;2.4;;;;;;;14.56;83.28;;;;;
2023/08/07 19:47:45;;;;;;;4.5;2.4;;;;;;;14.63;83.5;;;;;
2023/08/07 19:57:45;;;;;;;4.5;2.4;;;;;;;14.84;82.94;;;;;
2023/08/07 20:07:45;;;;;;;4.5;2.4;;;;;;;15.02;82.76;;;;;
2023/08/07 20:18:45;;;;;;;3.8;1.7;;;;;;;15.05;82.83;;;;;
2023/08/07 20:28:45;;;;;;;3.8;1.7;;;;;;;15.22;82.16;;;;;
2023/08/07 20:39:45;;;;;;;3.8;1.7;;;;;;;15.31;82.02;;;;;
2023/08/07 20:49:45;;;;;;;5.5;1.3;;;;;;;15.36;82.01;;;;;
2023/08/07 21:00:45;;;;;;;5.5;1.3;;;;;;;15.37;81.74;;;;;
2023/08/07 21:10:45;;;;;;;5.5;1.3;;;;;;;15.4;81.44;;;;;
2023/08/07 21:20:45;;;;;;;2.5;1;;;;;;;15.42;81.51;;;;;
2023/08/07 21:30:45;;;;;;;2.5;1;;;;;;;15.44;81.27;;;;;
2023/08/07 21:41:45;;;;;;;2.4;1.1;;;;;;;15.41;82.07;;;;;
2023/08/07 21:51:45;;;;;;;2.4;1.1;;;;;;;15.42;82.13;;;;;
2023/08/07 22:02:45;;;;;;;2.4;1.1;;;;;;;15.3;82.19;;;;;
2023/08/07 22:12:45;;;;;;;2.7;0.9;;;;;;;15.34;82.24;;;;;
2023/08/07 22:22:45;;;;;;;2.7;0.9;;;;;;;15.34;82.5;;;;;
2023/08/07 22:32:45;;;;;;;2.7;0.9;;;;;;;15.25;83.28;;;;;
2023/08/07 22:43:45;;;;;;;2.6;1;;;;;;;15.14;83.68;;;;;
2023/08/07 22:54:45;;;;;;;2.6;1;;;;;;;15.13;83.5;;;;;
2023/08/07 23:05:45;;;;;;;2.6;1;;;;;;;15.04;83.52;;;;;
2023/08/07 23:15:46;;;;;;;3.4;1.2;;;;;;;14.98;83.22;;;;;
2023/08/07 23:26:45;;;;;;;3.4;1.2;;;;;;;15.04;82.99;;;;;
2023/08/07 23:36:45;;;;;;;3.4;1.2;;;;;;;15.09;82.56;;;;;
2023/08/07 23:47:45;;;;;;;3.9;1.3;;;;;;;15.08;82.61;;;;;
2023/08/07 23:58:45;;;;;;;3.9;1.3;;;;;;;15.08;81.99;;;;;
